Rumney, New Hampshire
Current Conditions -  °F | °C
As of 3:15 AM on Thursday 29 Jan 2015 (Local Time) from K1P1 Reporting Station
Clear Clear  
Wind Chill:   Ceiling: Unl
Heat Index: 13°   Visibility: 10mi
Dew Point:   Wind: 8mph
Humidity: 58%   Direction: 310°NW
Pressure: 30.27"   Gusts: NA
Location:  43.81°N, 71.81°W
Report Text: K1P1 290815Z AUTO 31007KT 10SM CLR M11/M17 A3027 RMK AO2 T11071175
Loading
Personal Weather Stations






























Interactive Weather Map New forecast layout! Learn more

10-Day Weather Forecast

Advertisements
Track Severe Weather on mobile